< < Back
Terminal Aerodrome Forecast


Current Version              Previous Versions:   1  2  3  4  5  6  7  8  9  

Terminal Aerodrome Forecast

071
FTUS42 KGSP 271138
TAFAND
TAF
KAND 271138Z 2712/2812 26011KT P6SM FEW250
     FM280200 30007KT P6SM SKC
     FM280500 31003KT P6SM SKC=

Latest METAR

470
SAUS70 KWBC 271300 RRE
MTRAND
METAR KAND 271256Z AUTO 26012G18KT 10SM CLR 06/M03 A3011 RMK AO2 SLP194
T00611028


USA.gov is the U.S. government's official web portal to all federal, state and local government web resources and services.